createdAt,value
2023-05-22T00:02:58.572Z,15.77
2023-05-22T00:08:00.338Z,15.76
2023-05-22T00:13:02.006Z,15.69
2023-05-22T00:18:04.044Z,15.75
2023-05-22T00:23:10.149Z,15.75
2023-05-22T00:28:11.950Z,15.78
2023-05-22T00:33:13.638Z,15.77
2023-05-22T00:38:32.579Z,15.69
2023-05-22T00:43:34.623Z,15.58
2023-05-22T00:48:36.423Z,15.42
2023-05-22T00:53:38.165Z,15.30
2023-05-22T00:58:39.869Z,15.18
2023-05-22T01:03:44.877Z,15.08
2023-05-22T01:08:47.399Z,14.99
2023-05-22T01:13:58.056Z,14.91
2023-05-22T01:19:06.332Z,14.83
2023-05-22T01:24:37.242Z,14.78
2023-05-22T01:30:16.202Z,14.77
2023-05-22T01:35:19.180Z,14.74
2023-05-22T01:40:21.296Z,14.71
2023-05-22T01:45:23.032Z,14.68
2023-05-22T01:50:24.891Z,14.65
2023-05-22T01:55:45.238Z,14.60
2023-05-22T02:00:47.352Z,14.60
2023-05-22T02:05:53.496Z,14.52
2023-05-22T02:10:56.178Z,14.46
2023-05-22T02:15:58.558Z,14.40
2023-05-22T02:21:00.720Z,14.33
2023-05-22T02:26:02.382Z,14.24
2023-05-22T02:31:04.309Z,14.21
2023-05-22T02:36:10.806Z,14.18
2023-05-22T02:41:12.544Z,14.13
2023-05-22T02:46:14.373Z,14.09
2023-05-22T02:51:16.582Z,13.99
2023-05-22T02:56:18.888Z,13.89
2023-05-22T03:01:22.005Z,13.87
2023-05-22T03:06:25.425Z,13.78
2023-05-22T03:11:28.311Z,13.72
2023-05-22T03:16:30.222Z,13.70
2023-05-22T03:21:32.588Z,13.72
2023-05-22T03:26:34.432Z,13.73
2023-05-22T03:31:38.764Z,13.74
2023-05-22T03:36:43.032Z,13.80
2023-05-22T03:41:44.728Z,13.84
2023-05-22T03:46:47.530Z,13.90
2023-05-22T03:51:50.369Z,14.05
2023-05-22T03:56:52.095Z,14.23
2023-05-22T04:01:54.653Z,14.45
2023-05-22T04:06:58.254Z,14.70
2023-05-22T04:12:01.757Z,14.81
2023-05-22T04:17:03.494Z,14.98
2023-05-22T04:22:05.176Z,15.14
2023-05-22T04:27:06.990Z,15.25
2023-05-22T04:32:10.901Z,15.32
2023-05-22T04:37:15.140Z,15.44
2023-05-22T04:42:17.541Z,15.51
2023-05-22T04:47:19.676Z,15.78
2023-05-22T04:52:22.076Z,16.01
2023-05-22T04:57:25.632Z,16.25
2023-05-22T05:02:27.545Z,16.20
2023-05-22T05:07:29.447Z,16.18
2023-05-22T05:12:32.084Z,16.44
2023-05-22T05:17:33.895Z,16.82
2023-05-22T05:22:37.482Z,17.56
2023-05-22T05:27:40.654Z,17.76
2023-05-22T05:32:43.814Z,17.95
2023-05-22T05:38:04.186Z,18.01
2023-05-22T05:43:09.346Z,18.00
2023-05-22T05:48:12.176Z,18.27
2023-05-22T05:53:18.259Z,18.74
2023-05-22T05:58:25.749Z,19.14
2023-05-22T06:03:50.837Z,19.79
2023-05-22T06:08:59.447Z,20.67
2023-05-22T06:14:08.212Z,20.93
2023-05-22T06:19:09.949Z,20.88
2023-05-22T06:24:11.712Z,21.95
2023-05-22T06:29:14.448Z,21.47
2023-05-22T06:34:16.278Z,21.92
2023-05-22T06:39:18.690Z,23.12
2023-05-22T06:44:44.902Z,23.42
2023-05-22T06:49:46.695Z,23.57
2023-05-22T06:54:50.013Z,22.73
2023-05-22T06:59:52.173Z,23.66
2023-05-22T07:05:13.817Z,24.12
2023-05-22T07:10:27.766Z,24.66
2023-05-22T07:15:29.958Z,24.44
2023-05-22T07:20:39.843Z,24.46
2023-05-22T07:25:48.363Z,24.60
2023-05-22T07:30:51.292Z,25.07
2023-05-22T07:35:53.454Z,24.20
2023-05-22T07:40:56.174Z,24.74
2023-05-22T07:45:59.085Z,24.73
2023-05-22T07:51:05.584Z,24.73
2023-05-22T07:56:07.725Z,24.66
2023-05-22T08:01:13.622Z,24.48
2023-05-22T08:06:17.775Z,24.25
2023-05-22T08:11:19.452Z,24.34
2023-05-22T08:16:21.177Z,24.67
2023-05-22T08:21:22.964Z,24.57
2023-05-22T08:26:24.621Z,24.72
2023-05-22T08:31:28.008Z,24.96
2023-05-22T08:36:34.382Z,25.22
2023-05-22T08:41:36.243Z,25.15
2023-05-22T08:46:41.592Z,25.17
2023-05-22T08:51:47.955Z,24.81
2023-05-22T08:56:56.682Z,24.74
2023-05-22T09:01:59.458Z,24.88
2023-05-22T09:07:05.779Z,25.33
2023-05-22T09:12:09.329Z,25.50
2023-05-22T09:17:13.589Z,25.76
2023-05-22T09:22:16.742Z,26.02
2023-05-22T09:27:18.452Z,26.14
2023-05-22T09:32:22.487Z,26.47
2023-05-22T09:37:24.252Z,26.36
2023-05-22T09:42:25.932Z,26.00
2023-05-22T09:47:27.721Z,25.90
2023-05-22T09:52:29.524Z,25.87
2023-05-22T09:57:34.455Z,26.23
2023-05-22T10:02:38.215Z,25.94
2023-05-22T10:07:47.256Z,25.82
2023-05-22T10:13:01.644Z,25.60
2023-05-22T10:18:05.618Z,25.45
2023-05-22T10:23:08.153Z,25.22
2023-05-22T10:28:10.421Z,25.17
2023-05-22T10:33:26.326Z,25.15
2023-05-22T10:38:52.400Z,24.99
2023-05-22T10:43:56.591Z,25.13
2023-05-22T10:48:58.471Z,24.81
2023-05-22T10:54:05.432Z,24.81
2023-05-22T10:59:09.975Z,24.95
2023-05-22T11:04:12.186Z,25.05
2023-05-22T11:09:19.001Z,25.33
2023-05-22T11:14:20.845Z,25.62
2023-05-22T11:19:23.860Z,25.85
2023-05-22T11:24:26.049Z,25.91
2023-05-22T11:29:29.366Z,25.85
2023-05-22T11:34:31.141Z,25.72
2023-05-22T11:39:33.147Z,25.56
2023-05-22T11:44:34.946Z,25.46
2023-05-22T11:49:36.609Z,25.42
2023-05-22T11:54:39.040Z,25.51
2023-05-22T11:59:44.800Z,25.63
2023-05-22T12:04:46.857Z,25.73
2023-05-22T12:09:49.137Z,25.43
2023-05-22T12:14:50.966Z,25.46
2023-05-22T12:19:53.349Z,25.51
2023-05-22T12:24:55.646Z,25.45
2023-05-22T12:29:58.078Z,25.61
2023-05-22T12:34:59.997Z,25.57
2023-05-22T12:40:04.020Z,25.69
2023-05-22T12:45:06.175Z,25.89
2023-05-22T12:50:08.527Z,25.83
2023-05-22T12:55:10.724Z,25.80
2023-05-22T13:00:13.042Z,25.73
2023-05-22T13:05:21.843Z,25.93
2023-05-22T13:10:23.589Z,26.01
2023-05-22T13:15:25.572Z,25.94
2023-05-22T13:20:27.206Z,26.01
2023-05-22T13:25:28.867Z,26.00
2023-05-22T13:30:30.745Z,25.96
2023-05-22T13:35:32.534Z,25.94
2023-05-22T13:40:34.215Z,26.12
2023-05-22T13:45:35.872Z,26.03
2023-05-22T13:50:37.602Z,26.05
2023-05-22T13:55:39.516Z,25.88
2023-05-22T14:00:41.371Z,25.91
2023-05-22T14:05:44.098Z,25.95
2023-05-22T14:10:45.838Z,26.02
2023-05-22T14:15:47.503Z,26.05
2023-05-22T14:20:49.166Z,25.93
2023-05-22T14:25:51.147Z,26.00
2023-05-22T14:30:52.909Z,26.09
2023-05-22T14:35:54.702Z,26.01
2023-05-22T14:40:56.383Z,26.04
2023-05-22T14:45:59.158Z,26.06
2023-05-22T14:51:00.985Z,26.07
2023-05-22T14:56:02.720Z,26.19
2023-05-22T15:01:04.621Z,26.14
2023-05-22T15:06:06.378Z,26.13
2023-05-22T15:11:08.082Z,26.16
2023-05-22T15:16:09.737Z,26.13
2023-05-22T15:21:11.962Z,25.76
2023-05-22T15:26:13.628Z,25.60
2023-05-22T15:31:15.337Z,25.52
2023-05-22T15:36:17.048Z,25.30
2023-05-22T15:41:18.864Z,25.29
2023-05-22T15:46:20.758Z,25.06
2023-05-22T15:51:22.608Z,24.93
2023-05-22T15:56:24.543Z,24.76
2023-05-22T16:01:26.313Z,24.70
2023-05-22T16:06:28.580Z,24.82
2023-05-22T16:11:30.263Z,24.80
2023-05-22T16:16:31.968Z,24.65
2023-05-22T16:21:33.712Z,24.65
2023-05-22T16:26:37.640Z,24.71
2023-05-22T16:31:39.389Z,24.72
2023-05-22T16:36:41.154Z,24.66
2023-05-22T16:41:42.838Z,24.47
2023-05-22T16:46:44.543Z,24.25
2023-05-22T16:51:46.370Z,24.15
2023-05-22T16:56:48.130Z,24.10
2023-05-22T17:01:49.995Z,23.99
2023-05-22T17:06:53.857Z,23.91
2023-05-22T17:11:55.759Z,23.80
2023-05-22T17:16:57.476Z,23.65
2023-05-22T17:21:59.225Z,23.49
2023-05-22T17:27:01.197Z,23.35
2023-05-22T17:32:05.268Z,23.21
2023-05-22T17:37:07.074Z,23.13
2023-05-22T17:42:08.768Z,23.04
2023-05-22T17:47:10.519Z,22.99
2023-05-22T17:52:13.184Z,22.91
2023-05-22T17:57:16.033Z,22.82
2023-05-22T18:02:17.925Z,22.68
2023-05-22T18:07:20.029Z,22.58
2023-05-22T18:12:31.120Z,22.53
2023-05-22T18:17:33.778Z,22.42
2023-05-22T18:22:38.405Z,22.32
2023-05-22T18:27:40.355Z,22.21
2023-05-22T18:32:42.026Z,22.13
2023-05-22T18:37:43.979Z,22.03
2023-05-22T18:42:45.654Z,21.89
2023-05-22T18:47:47.521Z,21.79
2023-05-22T18:52:49.299Z,21.65
2023-05-22T18:57:51.235Z,21.52
2023-05-22T19:02:53.058Z,21.38
2023-05-22T19:07:55.042Z,21.27
2023-05-22T19:12:56.776Z,21.19
2023-05-22T19:17:58.508Z,21.07
2023-05-22T19:23:00.562Z,21.00
2023-05-22T19:28:02.213Z,20.96
2023-05-22T19:33:04.470Z,20.89
2023-05-22T19:38:07.588Z,20.88
2023-05-22T19:43:09.273Z,20.81
2023-05-22T19:48:11.031Z,20.76
2023-05-22T19:53:12.781Z,20.67
2023-05-22T19:58:14.432Z,20.57
2023-05-22T20:03:16.970Z,20.48
2023-05-22T20:08:18.905Z,20.40
2023-05-22T20:13:20.604Z,20.30
2023-05-22T20:18:22.956Z,20.24
2023-05-22T20:23:24.633Z,20.15
2023-05-22T20:28:26.442Z,20.05
2023-05-22T20:33:28.318Z,19.97
2023-05-22T20:38:30.233Z,19.89
2023-05-22T20:43:32.037Z,19.79
2023-05-22T20:48:33.820Z,19.71
2023-05-22T20:53:35.622Z,19.63
2023-05-22T20:58:39.098Z,19.53
2023-05-22T21:03:41.218Z,19.47
2023-05-22T21:08:42.984Z,19.39
2023-05-22T21:13:44.811Z,19.30
2023-05-22T21:18:46.673Z,19.21
2023-05-22T21:23:49.122Z,19.14
2023-05-22T21:28:50.956Z,19.08
2023-05-22T21:33:52.668Z,18.97
2023-05-22T21:38:56.461Z,18.86
2023-05-22T21:43:58.402Z,18.72
2023-05-22T21:49:02.955Z,18.68
2023-05-22T21:54:04.753Z,18.70
2023-05-22T21:59:06.454Z,18.73
2023-05-22T22:04:08.433Z,18.76
2023-05-22T22:09:10.127Z,18.72
2023-05-22T22:14:11.843Z,18.70
2023-05-22T22:19:13.661Z,18.65
2023-05-22T22:24:15.759Z,18.60
2023-05-22T22:29:17.470Z,18.55
2023-05-22T22:34:19.263Z,18.49
2023-05-22T22:39:20.932Z,18.45
2023-05-22T22:44:22.604Z,18.38
2023-05-22T22:49:24.312Z,18.30
2023-05-22T22:54:25.952Z,18.25
2023-05-22T22:59:27.767Z,18.19
2023-05-22T23:04:29.662Z,18.12
2023-05-22T23:09:31.387Z,18.04
2023-05-22T23:14:33.028Z,18.03
2023-05-22T23:19:34.739Z,18.05
2023-05-22T23:24:36.484Z,18.03
2023-05-22T23:29:38.176Z,18.02
2023-05-22T23:34:39.884Z,17.98
2023-05-22T23:39:41.519Z,17.96
2023-05-22T23:44:43.672Z,17.93
2023-05-22T23:49:45.597Z,17.88
2023-05-22T23:54:47.331Z,17.86
2023-05-22T23:59:49.034Z,17.88
